createdAt,value
2022-09-21T00:01:29.715Z,100212.66
2022-09-21T00:04:00.239Z,100210.25
2022-09-21T00:06:29.659Z,100218.31
2022-09-21T00:08:56.518Z,100225.38
2022-09-21T00:11:28.086Z,100229.03
2022-09-21T00:13:55.618Z,100222.00
2022-09-21T00:16:23.931Z,100216.63
2022-09-21T00:18:51.934Z,100223.25
2022-09-21T00:21:19.669Z,100218.84
2022-09-21T00:23:47.498Z,100219.84
2022-09-21T00:26:17.944Z,100222.53
2022-09-21T00:28:46.159Z,100221.09
2022-09-21T00:31:14.838Z,100228.47
2022-09-21T00:33:44.611Z,100225.03
2022-09-21T00:36:13.710Z,100225.31
2022-09-21T00:38:41.766Z,100227.03
2022-09-21T00:41:10.869Z,100232.66
2022-09-21T00:43:38.358Z,100227.31
2022-09-21T00:46:10.612Z,100236.34
2022-09-21T00:48:38.360Z,100221.09
2022-09-21T00:51:08.017Z,100231.84
2022-09-21T00:53:37.578Z,100240.03
2022-09-21T00:56:05.442Z,100229.28
2022-09-21T00:58:35.918Z,100234.66
2022-09-21T01:01:02.511Z,100230.97
2022-09-21T01:03:30.468Z,100234.66
2022-09-21T01:05:58.486Z,100245.38
2022-09-21T01:08:27.137Z,100236.59
2022-09-21T01:11:13.598Z,100236.88
2022-09-21T01:14:01.916Z,100237.16
2022-09-21T01:16:49.612Z,100232.06
2022-09-21T01:19:34.847Z,100235.72
2022-09-21T01:22:07.696Z,100239.66
2022-09-21T01:24:50.246Z,100234.56
2022-09-21T01:27:36.645Z,100228.34
2022-09-21T01:30:06.876Z,100224.09
2022-09-21T01:32:37.956Z,100234.84
2022-09-21T01:35:23.266Z,100235.97
2022-09-21T01:38:02.314Z,100231.72
2022-09-21T01:40:36.120Z,100230.28
2022-09-21T01:43:06.028Z,100228.59
2022-09-21T01:45:41.443Z,100230.69
2022-09-21T01:48:09.298Z,100229.13
2022-09-21T01:50:49.968Z,100220.34
2022-09-21T01:53:23.098Z,100231.34
2022-09-21T01:55:57.124Z,100244.06
2022-09-21T01:58:42.343Z,100240.66
2022-09-21T02:01:12.892Z,100237.25
2022-09-21T02:03:44.234Z,100237.50
2022-09-21T02:06:11.770Z,100233.84
2022-09-21T02:08:39.636Z,100240.94
2022-09-21T02:11:07.272Z,100239.47
2022-09-21T02:13:37.204Z,100239.47
2022-09-21T02:16:07.508Z,100235.81
2022-09-21T02:18:56.937Z,100236.09
2022-09-21T02:21:38.146Z,100243.41
2022-09-21T02:24:21.944Z,100244.13
2022-09-21T02:26:54.191Z,100247.09
2022-09-21T02:29:49.185Z,100243.50
2022-09-21T02:32:35.201Z,100247.56
2022-09-21T02:35:20.809Z,100251.50
2022-09-21T02:37:56.947Z,100246.13
2022-09-21T02:40:36.987Z,100251.50
2022-09-21T02:43:12.754Z,100248.50
2022-09-21T02:45:48.163Z,100260.44
2022-09-21T02:48:22.127Z,100257.06
2022-09-21T02:50:55.034Z,100254.78
2022-09-21T02:53:26.027Z,100253.31
2022-09-21T02:55:56.577Z,100258.09
2022-09-21T02:58:25.186Z,100257.50
2022-09-21T03:00:54.982Z,100258.88
2022-09-21T03:03:24.806Z,100256.56
2022-09-21T03:05:54.006Z,100256.56
2022-09-21T03:08:20.547Z,100260.50
2022-09-21T03:10:49.161Z,100258.78
2022-09-21T03:13:17.349Z,100261.03
2022-09-21T03:15:46.323Z,100257.34
2022-09-21T03:18:15.086Z,100268.06
2022-09-21T03:20:46.229Z,100264.66
2022-09-21T03:23:14.522Z,100266.38
2022-09-21T03:25:46.167Z,100262.97
2022-09-21T03:28:14.798Z,100268.06
2022-09-21T03:30:42.714Z,100268.31
2022-09-21T03:33:11.474Z,100265.88
2022-09-21T03:35:39.495Z,100282.97
2022-09-21T03:38:07.064Z,100281.50
2022-09-21T03:40:34.897Z,100280.66
2022-09-21T03:43:02.642Z,100277.13
2022-09-21T03:45:29.182Z,100278.38
2022-09-21T03:47:58.145Z,100280.16
2022-09-21T03:50:28.264Z,100282.00
2022-09-21T03:52:56.514Z,100284.22
2022-09-21T03:55:23.339Z,100281.06
2022-09-21T03:57:52.342Z,100291.75
2022-09-21T04:00:20.343Z,100286.66
2022-09-21T04:02:46.797Z,100287.66
2022-09-21T04:05:15.444Z,100286.66
2022-09-21T04:07:45.797Z,100291.19
2022-09-21T04:10:15.762Z,100283.28
2022-09-21T04:12:44.264Z,100283.28
2022-09-21T04:15:14.449Z,100287.66
2022-09-21T04:17:41.006Z,100284.97
2022-09-21T04:20:09.474Z,100281.56
2022-09-21T04:22:42.583Z,100284.97
2022-09-21T04:25:11.076Z,100281.31
2022-09-21T04:27:38.942Z,100293.00
2022-09-21T04:30:07.206Z,100296.28
2022-09-21T04:32:34.819Z,100295.44
2022-09-21T04:35:02.698Z,100302.47
2022-09-21T04:37:30.561Z,100309.56
2022-09-21T04:39:59.395Z,100306.63
2022-09-21T04:42:27.661Z,100311.00
2022-09-21T04:44:55.909Z,100307.34
2022-09-21T04:47:24.612Z,100310.75
2022-09-21T04:49:52.642Z,100311.00
2022-09-21T04:52:20.449Z,100307.09
2022-09-21T04:54:48.071Z,100312.19
2022-09-21T04:57:16.057Z,100304.91
2022-09-21T04:59:44.055Z,100303.31
2022-09-21T05:02:12.267Z,100304.91
2022-09-21T05:04:43.417Z,100306.34
2022-09-21T05:07:11.563Z,100303.41
2022-09-21T05:10:00.050Z,100299.91
2022-09-21T05:12:30.083Z,100303.81
2022-09-21T05:14:56.631Z,100301.13
2022-09-21T05:17:23.529Z,100303.03
2022-09-21T05:19:52.247Z,100305.00
2022-09-21T05:22:19.079Z,100303.28
2022-09-21T05:24:46.620Z,100313.25
2022-09-21T05:27:14.505Z,100319.06
2022-09-21T05:29:42.188Z,100322.94
2022-09-21T05:32:17.290Z,100327.56
2022-09-21T05:35:03.670Z,100326.16
2022-09-21T05:37:53.726Z,100328.41
2022-09-21T05:40:22.294Z,100334.75
2022-09-21T05:42:50.363Z,100340.13
2022-09-21T05:45:18.871Z,100332.00
2022-09-21T05:47:47.077Z,100334.63
2022-09-21T05:50:37.204Z,100332.91
2022-09-21T05:53:11.584Z,100325.03
2022-09-21T05:56:05.630Z,100327.75
2022-09-21T05:58:40.725Z,100329.88
2022-09-21T06:01:19.184Z,100335.09
2022-09-21T06:03:48.594Z,100338.09
2022-09-21T06:06:15.323Z,100331.09
2022-09-21T06:08:41.812Z,100334.25
2022-09-21T06:11:08.362Z,100332.00
2022-09-21T06:13:34.789Z,100329.22
2022-09-21T06:16:04.997Z,100331.50
2022-09-21T06:18:31.431Z,100327.84
2022-09-21T06:20:57.840Z,100334.03
2022-09-21T06:23:24.327Z,100330.56
2022-09-21T06:25:55.927Z,100338.34
2022-09-21T06:28:24.686Z,100347.38
2022-09-21T06:30:52.180Z,100346.69
2022-09-21T06:33:21.254Z,100352.94
2022-09-21T06:35:54.619Z,100355.22
2022-09-21T06:38:22.157Z,100355.81
2022-09-21T06:40:48.693Z,100353.81
2022-09-21T06:43:15.226Z,100353.00
2022-09-21T06:45:42.140Z,100358.09
2022-09-21T06:48:08.633Z,100356.44
2022-09-21T06:50:35.072Z,100357.56
2022-09-21T06:53:02.754Z,100362.38
2022-09-21T06:55:29.883Z,100362.38
2022-09-21T06:58:03.014Z,100368.91
2022-09-21T07:00:30.430Z,100368.84
2022-09-21T07:02:56.934Z,100365.16
2022-09-21T07:05:23.388Z,100360.03
2022-09-21T07:07:53.690Z,100358.59
2022-09-21T07:10:20.938Z,100373.97
2022-09-21T07:12:47.546Z,100369.19
2022-09-21T07:15:15.501Z,100360.44
2022-09-21T07:17:51.668Z,100368.91
2022-09-21T07:20:18.828Z,100379.41
2022-09-21T07:22:45.282Z,100372.34
2022-09-21T07:25:11.799Z,100375.72
2022-09-21T07:27:38.419Z,100373.19
2022-09-21T07:30:06.184Z,100376.09
2022-09-21T07:32:32.934Z,100392.25
2022-09-21T07:34:59.347Z,100389.66
2022-09-21T07:37:26.285Z,100393.03
2022-09-21T07:39:53.303Z,100393.28
2022-09-21T07:42:21.284Z,100396.00
2022-09-21T07:44:47.751Z,100386.50
2022-09-21T07:47:14.781Z,100397.28
2022-09-21T07:49:41.830Z,100403.91
2022-09-21T07:52:10.969Z,100400.66
2022-09-21T07:54:37.862Z,100403.81
2022-09-21T07:57:23.186Z,100400.69
2022-09-21T07:59:49.658Z,100407.25
2022-09-21T08:02:16.324Z,100412.38
2022-09-21T08:04:42.979Z,100401.88
2022-09-21T08:07:09.395Z,100413.47
2022-09-21T08:09:35.866Z,100406.41
2022-09-21T08:12:02.464Z,100411.22
2022-09-21T08:14:29.392Z,100410.50
2022-09-21T08:16:55.952Z,100413.94
2022-09-21T08:19:26.028Z,100416.31
2022-09-21T08:21:57.274Z,100410.66
2022-09-21T08:24:26.737Z,100413.47
2022-09-21T08:26:53.998Z,100417.56
2022-09-21T08:29:23.513Z,100415.47
2022-09-21T08:31:50.119Z,100414.78
2022-09-21T08:34:16.670Z,100417.44
2022-09-21T08:36:43.594Z,100426.78
2022-09-21T08:39:10.293Z,100419.16
2022-09-21T08:42:00.724Z,100412.47
2022-09-21T08:44:33.295Z,100422.00
2022-09-21T08:47:19.948Z,100414.88
2022-09-21T08:49:50.794Z,100423.41
2022-09-21T08:52:19.770Z,100417.16
2022-09-21T08:54:59.022Z,100425.06
2022-09-21T08:57:32.791Z,100425.03
2022-09-21T09:00:00.435Z,100421.53
2022-09-21T09:02:39.084Z,100424.34
2022-09-21T09:05:24.960Z,100430.13
2022-09-21T09:07:54.446Z,100430.66
2022-09-21T09:10:42.329Z,100426.84
2022-09-21T09:13:29.093Z,100434.34
2022-09-21T09:16:08.001Z,100434.34
2022-09-21T09:18:43.526Z,100434.38
2022-09-21T09:21:16.874Z,100427.31
2022-09-21T09:23:46.833Z,100426.16
2022-09-21T09:26:20.589Z,100416.41
2022-09-21T09:28:53.083Z,100416.78
2022-09-21T09:31:23.434Z,100422.22
2022-09-21T09:33:51.729Z,100421.03
2022-09-21T09:36:30.081Z,100419.81
2022-09-21T09:39:13.108Z,100417.41
2022-09-21T09:41:39.531Z,100422.81
2022-09-21T09:44:08.834Z,100422.38
2022-09-21T09:46:45.393Z,100417.41
2022-09-21T09:49:30.194Z,100416.16
2022-09-21T09:51:56.812Z,100410.13
2022-09-21T09:54:26.374Z,100413.53
2022-09-21T09:56:55.203Z,100408.00
2022-09-21T09:59:54.417Z,100412.72
2022-09-21T10:02:21.962Z,100393.94
2022-09-21T10:04:54.996Z,100398.97
2022-09-21T10:07:33.122Z,100395.81
2022-09-21T10:09:59.596Z,100405.31
2022-09-21T10:12:27.547Z,100407.78
2022-09-21T10:14:56.208Z,100405.16
2022-09-21T10:17:24.613Z,100397.84
2022-09-21T10:20:01.179Z,100399.75
2022-09-21T10:22:28.556Z,100398.66
2022-09-21T10:25:05.308Z,100404.44
2022-09-21T10:27:42.806Z,100394.78
2022-09-21T10:30:29.186Z,100390.44
2022-09-21T10:32:56.868Z,100395.34
2022-09-21T10:35:23.419Z,100399.47
2022-09-21T10:38:08.251Z,100396.38
2022-09-21T10:40:36.356Z,100395.03
2022-09-21T10:43:02.991Z,100395.09
2022-09-21T10:45:30.640Z,100389.91
2022-09-21T10:47:57.098Z,100388.13
2022-09-21T10:50:23.556Z,100394.78
2022-09-21T10:52:51.440Z,100392.59
2022-09-21T10:55:22.768Z,100399.06
2022-09-21T10:57:50.376Z,100398.94
2022-09-21T11:00:25.859Z,100394.31
2022-09-21T11:02:52.604Z,100392.13
2022-09-21T11:05:39.333Z,100393.53
2022-09-21T11:08:09.748Z,100390.59
2022-09-21T11:10:55.062Z,100400.16
2022-09-21T11:13:24.650Z,100395.13
2022-09-21T11:16:09.958Z,100398.91
2022-09-21T11:18:45.797Z,100393.28
2022-09-21T11:21:34.453Z,100385.03
2022-09-21T11:24:00.864Z,100386.88
2022-09-21T11:26:29.155Z,100389.34
2022-09-21T11:29:15.831Z,100400.06
2022-09-21T11:31:48.782Z,100396.91
2022-09-21T11:34:21.133Z,100400.88
2022-09-21T11:37:11.082Z,100397.94
2022-09-21T11:39:46.556Z,100391.88
2022-09-21T11:42:14.836Z,100393.16
2022-09-21T11:44:53.067Z,100389.00
2022-09-21T11:47:38.259Z,100389.19
2022-09-21T11:50:32.167Z,100387.97
2022-09-21T11:53:11.535Z,100386.50
2022-09-21T11:56:03.992Z,100379.19
2022-09-21T11:58:37.433Z,100381.94
2022-09-21T12:01:09.116Z,100377.91
2022-09-21T12:03:44.615Z,100376.47
2022-09-21T12:06:16.244Z,100378.41
2022-09-21T12:08:52.394Z,100382.34
2022-09-21T12:11:21.517Z,100381.72
2022-09-21T12:14:03.306Z,100378.06
2022-09-21T12:16:38.852Z,100376.66
2022-09-21T12:19:11.533Z,100375.63
2022-09-21T12:21:41.396Z,100373.75
2022-09-21T12:24:16.897Z,100372.00
2022-09-21T12:26:46.111Z,100369.47
2022-09-21T12:29:16.257Z,100364.28
2022-09-21T12:32:03.392Z,100361.19
2022-09-21T12:34:56.160Z,100370.94
2022-09-21T12:37:31.782Z,100360.84
2022-09-21T12:40:05.470Z,100366.59
2022-09-21T12:42:34.763Z,100357.13
2022-09-21T12:45:07.100Z,100351.16
2022-09-21T12:47:36.275Z,100348.88
2022-09-21T12:50:06.951Z,100357.34
2022-09-21T12:52:34.528Z,100351.31
2022-09-21T12:55:01.320Z,100347.50
2022-09-21T12:58:04.794Z,100342.59
2022-09-21T13:00:22.233Z,100340.22
2022-09-21T13:02:55.965Z,100344.03
2022-09-21T13:05:29.721Z,100343.00
2022-09-21T13:07:59.178Z,100342.66
2022-09-21T13:10:29.758Z,100342.66
2022-09-21T13:13:00.069Z,100337.56
2022-09-21T13:15:27.837Z,100332.69
2022-09-21T13:17:59.381Z,100344.28
2022-09-21T13:20:33.520Z,100336.25
2022-09-21T13:23:02.133Z,100334.88
2022-09-21T13:25:30.436Z,100336.41
2022-09-21T13:28:15.196Z,100339.25
2022-09-21T13:30:42.928Z,100336.28
2022-09-21T13:33:23.147Z,100332.16
2022-09-21T13:36:07.879Z,100327.78
2022-09-21T13:38:54.326Z,100328.66
2022-09-21T13:41:40.277Z,100330.38
2022-09-21T13:44:33.218Z,100332.97
2022-09-21T13:47:01.681Z,100321.28
2022-09-21T13:49:31.624Z,100319.28
2022-09-21T13:52:05.081Z,100319.16
2022-09-21T13:54:31.974Z,100321.38
2022-09-21T13:57:16.818Z,100316.97
2022-09-21T13:59:44.985Z,100319.34
2022-09-21T14:02:40.978Z,100321.41
2022-09-21T14:05:19.508Z,100321.31
2022-09-21T14:07:47.131Z,100327.66
2022-09-21T14:10:18.512Z,100319.34
2022-09-21T14:12:45.510Z,100330.25
2022-09-21T14:15:19.434Z,100318.28
2022-09-21T14:18:07.993Z,100326.44
2022-09-21T14:20:40.198Z,100326.78
2022-09-21T14:23:27.865Z,100328.84
2022-09-21T14:25:54.601Z,100327.94
2022-09-21T14:28:27.532Z,100319.00
2022-09-21T14:30:59.414Z,100323.22
2022-09-21T14:33:29.388Z,100314.78
2022-09-21T14:35:56.416Z,100312.56
2022-09-21T14:38:28.610Z,100324.19
2022-09-21T14:41:00.369Z,100324.53
2022-09-21T14:43:35.329Z,100327.56
2022-09-21T14:46:17.253Z,100317.47
2022-09-21T14:48:55.861Z,100322.53
2022-09-21T14:51:41.351Z,100321.84
2022-09-21T14:54:14.409Z,100317.84
2022-09-21T14:56:56.674Z,100313.59
2022-09-21T14:59:42.000Z,100317.91
2022-09-21T15:02:11.306Z,100318.66
2022-09-21T15:04:56.360Z,100319.09
2022-09-21T15:08:00.515Z,100325.06
2022-09-21T15:10:49.709Z,100323.25
2022-09-21T15:13:20.353Z,100321.81
2022-09-21T15:15:47.061Z,100331.53
2022-09-21T15:18:20.197Z,100323.50
2022-09-21T15:21:06.411Z,100332.41
2022-09-21T15:23:34.889Z,100334.34
2022-09-21T15:26:09.308Z,100323.34
2022-09-21T15:29:05.018Z,100333.47
2022-09-21T15:31:25.178Z,100348.09
2022-09-21T15:33:52.908Z,100338.84
2022-09-21T15:36:23.479Z,100346.88
2022-09-21T15:38:50.826Z,100345.09
2022-09-21T15:41:47.618Z,100354.97
2022-09-21T15:44:17.270Z,100357.03
2022-09-21T15:46:46.793Z,100350.28
2022-09-21T15:49:15.401Z,100352.00
2022-09-21T15:51:48.146Z,100358.25
2022-09-21T15:54:52.185Z,100369.50
2022-09-21T15:57:36.390Z,100367.69
2022-09-21T16:00:31.268Z,100367.94
2022-09-21T16:03:04.434Z,100370.38
2022-09-21T16:05:43.396Z,100376.91
2022-09-21T16:08:18.786Z,100371.81
2022-09-21T16:10:45.250Z,100377.75
2022-09-21T16:13:41.958Z,100378.00
2022-09-21T16:16:12.844Z,100377.91
2022-09-21T16:18:54.537Z,100382.13
2022-09-21T16:21:23.717Z,100385.84
2022-09-21T16:23:52.123Z,100386.47
2022-09-21T16:26:26.943Z,100391.13
2022-09-21T16:28:57.946Z,100385.06
2022-09-21T16:31:32.273Z,100391.91
2022-09-21T16:34:05.465Z,100384.31
2022-09-21T16:36:37.517Z,100383.91
2022-09-21T16:39:12.793Z,100385.47
2022-09-21T16:41:44.311Z,100378.78
2022-09-21T16:44:13.362Z,100378.56
2022-09-21T16:46:44.034Z,100388.88
2022-09-21T16:49:15.353Z,100379.00
2022-09-21T16:51:41.831Z,100372.84
2022-09-21T16:54:08.570Z,100382.25
2022-09-21T16:56:36.163Z,100382.25
2022-09-21T16:59:06.060Z,100379.47
2022-09-21T17:01:32.641Z,100380.41
2022-09-21T17:03:59.118Z,100382.69
2022-09-21T17:06:25.586Z,100390.41
2022-09-21T17:08:52.000Z,100387.16
2022-09-21T17:11:22.192Z,100394.38
2022-09-21T17:13:49.224Z,100381.63
2022-09-21T17:16:19.460Z,100395.56
2022-09-21T17:18:46.882Z,100392.47
2022-09-21T17:21:13.890Z,100387.06
2022-09-21T17:23:41.464Z,100394.47
2022-09-21T17:26:17.819Z,100403.84
2022-09-21T17:28:44.494Z,100393.38
2022-09-21T17:31:16.479Z,100401.06
2022-09-21T17:33:43.375Z,100401.66
2022-09-21T17:36:14.420Z,100406.66
2022-09-21T17:38:42.414Z,100409.94
2022-09-21T17:41:18.261Z,100413.91
2022-09-21T17:43:50.166Z,100411.38
2022-09-21T17:46:22.526Z,100410.81
2022-09-21T17:48:49.185Z,100424.44
2022-09-21T17:51:35.728Z,100423.84
2022-09-21T17:54:02.288Z,100425.16
2022-09-21T17:56:28.751Z,100428.16
2022-09-21T17:58:59.424Z,100423.06
2022-09-21T18:01:29.151Z,100433.09
2022-09-21T18:03:55.874Z,100434.13
2022-09-21T18:06:22.949Z,100432.41
2022-09-21T18:08:50.610Z,100436.09
2022-09-21T18:11:36.342Z,100434.41
2022-09-21T18:14:22.371Z,100438.22
2022-09-21T18:17:15.710Z,100438.38
2022-09-21T18:19:48.329Z,100440.38
2022-09-21T18:22:33.604Z,100447.75
2022-09-21T18:25:00.754Z,100447.03
2022-09-21T18:27:27.365Z,100449.44
2022-09-21T18:29:53.948Z,100461.94
2022-09-21T18:32:26.404Z,100455.66
2022-09-21T18:35:11.582Z,100454.53
2022-09-21T18:37:48.587Z,100459.94
2022-09-21T18:40:30.591Z,100459.94
2022-09-21T18:42:59.003Z,100456.81
2022-09-21T18:45:31.895Z,100467.06
2022-09-21T18:48:07.339Z,100469.31
2022-09-21T18:50:37.320Z,100472.13
2022-09-21T18:53:03.819Z,100474.56
2022-09-21T18:55:33.198Z,100464.22
2022-09-21T18:58:00.567Z,100464.50
2022-09-21T19:00:31.718Z,100458.41
2022-09-21T19:03:18.780Z,100467.06
2022-09-21T19:05:53.007Z,100458.53
2022-09-21T19:08:21.396Z,100455.41
2022-09-21T19:10:53.277Z,100461.66
2022-09-21T19:13:19.745Z,100456.53
2022-09-21T19:16:00.939Z,100455.41
2022-09-21T19:18:43.341Z,100455.34
2022-09-21T19:21:19.196Z,100464.84
2022-09-21T19:23:51.907Z,100468.91
2022-09-21T19:26:23.080Z,100465.75
2022-09-21T19:28:59.089Z,100461.22
2022-09-21T19:31:25.726Z,100465.72
2022-09-21T19:33:52.496Z,100462.31
2022-09-21T19:36:19.353Z,100464.53
2022-09-21T19:38:46.016Z,100454.03
2022-09-21T19:41:24.747Z,100453.72
2022-09-21T19:43:59.104Z,100452.28
2022-09-21T19:46:52.060Z,100451.84
2022-09-21T19:49:19.933Z,100445.75
2022-09-21T19:51:53.608Z,100447.97
2022-09-21T19:54:43.451Z,100437.50
2022-09-21T19:57:38.559Z,100443.13
2022-09-21T20:00:07.622Z,100458.66
2022-09-21T20:02:45.630Z,100448.75
2022-09-21T20:05:20.138Z,100449.03
2022-09-21T20:07:58.289Z,100442.81
2022-09-21T20:10:36.448Z,100439.56
2022-09-21T20:13:09.382Z,100446.75
2022-09-21T20:15:48.247Z,100440.78
2022-09-21T20:18:29.599Z,100453.25
2022-09-21T20:20:57.421Z,100445.91
2022-09-21T20:23:24.317Z,100447.88
2022-09-21T20:26:03.479Z,100451.53
2022-09-21T20:28:31.321Z,100450.09
2022-09-21T20:30:58.083Z,100456.47
2022-09-21T20:33:24.833Z,100459.16
2022-09-21T20:35:57.916Z,100456.34
2022-09-21T20:38:24.527Z,100459.16
2022-09-21T20:40:52.273Z,100455.47
2022-09-21T20:43:19.692Z,100450.34
2022-09-21T20:45:49.504Z,100451.22
2022-09-21T20:48:16.225Z,100448.66
2022-09-21T20:50:44.546Z,100450.75
2022-09-21T20:53:11.020Z,100447.47
2022-09-21T20:55:37.841Z,100453.13
2022-09-21T20:58:04.668Z,100454.81
2022-09-21T21:00:31.594Z,100454.81
2022-09-21T21:02:59.728Z,100446.03
2022-09-21T21:05:29.032Z,100447.03
2022-09-21T21:07:56.031Z,100455.09
2022-09-21T21:10:23.918Z,100446.28
2022-09-21T21:12:51.497Z,100457.50
2022-09-21T21:15:18.578Z,100450.28
2022-09-21T21:17:47.104Z,100444.09
2022-09-21T21:20:19.048Z,100445.75
2022-09-21T21:22:48.986Z,100435.03
2022-09-21T21:25:16.768Z,100439.56
2022-09-21T21:27:44.322Z,100449.47
2022-09-21T21:30:11.371Z,100442.09
2022-09-21T21:32:39.001Z,100442.09
2022-09-21T21:35:07.040Z,100449.47
2022-09-21T21:37:34.613Z,100453.13
2022-09-21T21:40:02.402Z,100437.25
2022-09-21T21:42:30.270Z,100440.06
2022-09-21T21:44:58.068Z,100445.44
2022-09-21T21:47:39.181Z,100441.19
2022-09-21T21:50:06.672Z,100444.16
2022-09-21T21:52:34.330Z,100451.47
2022-09-21T21:55:02.568Z,100441.47
2022-09-21T21:57:30.338Z,100438.31
2022-09-21T21:59:56.771Z,100442.25
2022-09-21T22:02:24.681Z,100441.63
2022-09-21T22:04:52.760Z,100435.69
2022-09-21T22:07:19.246Z,100435.94
2022-09-21T22:09:47.634Z,100438.88
2022-09-21T22:12:15.723Z,100444.38
2022-09-21T22:14:42.341Z,100447.19
2022-09-21T22:17:09.312Z,100450.13
2022-09-21T22:19:37.120Z,100451.09
2022-09-21T22:22:04.131Z,100437.81
2022-09-21T22:24:31.754Z,100444.31
2022-09-21T22:26:59.620Z,100444.31
2022-09-21T22:29:27.424Z,100444.31
2022-09-21T22:31:55.611Z,100442.59
2022-09-21T22:34:22.342Z,100443.31
2022-09-21T22:36:48.826Z,100450.66
2022-09-21T22:39:16.595Z,100432.13
2022-09-21T22:41:44.316Z,100441.13
2022-09-21T22:44:12.162Z,100438.44
2022-09-21T22:46:40.274Z,100439.59
2022-09-21T22:49:08.403Z,100432.63
2022-09-21T22:51:37.906Z,100438.25
2022-09-21T22:54:06.166Z,100438.25
2022-09-21T22:56:34.364Z,100439.09
2022-09-21T22:59:03.588Z,100428.50
2022-09-21T23:01:40.276Z,100425.81
2022-09-21T23:04:09.302Z,100428.50
2022-09-21T23:06:38.200Z,100432.88
2022-09-21T23:09:07.702Z,100427.53
2022-09-21T23:11:36.854Z,100431.16
2022-09-21T23:14:03.832Z,100416.06
2022-09-21T23:16:32.295Z,100419.47
2022-09-21T23:19:00.604Z,100413.41
2022-09-21T23:21:29.530Z,100412.41
2022-09-21T23:23:59.859Z,100423.13
2022-09-21T23:26:28.635Z,100423.88
2022-09-21T23:28:58.039Z,100423.88
2022-09-21T23:31:26.742Z,100418.50
2022-09-21T23:33:55.596Z,100429.22
2022-09-21T23:36:25.014Z,100427.13
2022-09-21T23:38:53.146Z,100433.22
2022-09-21T23:41:27.030Z,100426.88
2022-09-21T23:43:55.529Z,100423.34
2022-09-21T23:46:24.723Z,100427.00
2022-09-21T23:48:52.775Z,100421.38
2022-09-21T23:51:20.830Z,100427.59
2022-09-21T23:53:47.677Z,100417.72
2022-09-21T23:56:16.872Z,100421.25
2022-09-21T23:58:44.527Z,100412.38
